sensor_id;sensor_type;location;lat;lon;timestamp;P1;durP1;ratioP1;P2;durP2;ratioP2
14603;SDS011;7388;51.078;13.740;2022-11-12T00:00:39;23.67;;;17.25;;
14603;SDS011;7388;51.078;13.740;2022-11-12T00:03:05;27.83;;;18.20;;
14603;SDS011;7388;51.078;13.740;2022-11-12T00:05:32;25.90;;;19.60;;
14603;SDS011;7388;51.078;13.740;2022-11-12T00:07:58;30.27;;;19.42;;
14603;SDS011;7388;51.078;13.740;2022-11-12T00:10:24;26.52;;;18.02;;
14603;SDS011;7388;51.078;13.740;2022-11-12T00:12:50;30.27;;;19.80;;
14603;SDS011;7388;51.078;13.740;2022-11-12T00:15:16;27.25;;;18.40;;
14603;SDS011;7388;51.078;13.740;2022-11-12T00:17:42;35.75;;;18.45;;
14603;SDS011;7388;51.078;13.740;2022-11-12T00:20:08;29.37;;;18.60;;
14603;SDS011;7388;51.078;13.740;2022-11-12T00:22:35;30.65;;;17.80;;
14603;SDS011;7388;51.078;13.740;2022-11-12T00:25:00;26.67;;;16.40;;
14603;SDS011;7388;51.078;13.740;2022-11-12T00:27:27;25.30;;;17.27;;
14603;SDS011;7388;51.078;13.740;2022-11-12T00:29:52;28.67;;;18.93;;
14603;SDS011;7388;51.078;13.740;2022-11-12T00:32:18;23.57;;;15.43;;
14603;SDS011;7388;51.078;13.740;2022-11-12T00:34:45;24.05;;;16.45;;
14603;SDS011;7388;51.078;13.740;2022-11-12T00:37:10;26.90;;;17.33;;
14603;SDS011;7388;51.078;13.740;2022-11-12T00:39:36;22.90;;;15.93;;
14603;SDS011;7388;51.078;13.740;2022-11-12T00:42:02;25.13;;;16.73;;
14603;SDS011;7388;51.078;13.740;2022-11-12T00:44:28;29.30;;;18.53;;
14603;SDS011;7388;51.078;13.740;2022-11-12T00:46:54;27.97;;;16.43;;
14603;SDS011;7388;51.078;13.740;2022-11-12T00:49:20;25.35;;;16.20;;
14603;SDS011;7388;51.078;13.740;2022-11-12T00:51:46;30.40;;;19.52;;
14603;SDS011;7388;51.078;13.740;2022-11-12T00:54:13;22.88;;;16.23;;
14603;SDS011;7388;51.078;13.740;2022-11-12T00:56:38;26.63;;;17.80;;
14603;SDS011;7388;51.078;13.740;2022-11-12T00:59:04;32.87;;;17.70;;
14603;SDS011;7388;51.078;13.740;2022-11-12T01:01:30;28.43;;;19.27;;
14603;SDS011;7388;51.078;13.740;2022-11-12T01:03:56;31.77;;;21.17;;
14603;SDS011;7388;51.078;13.740;2022-11-12T01:06:23;38.40;;;22.77;;
14603;SDS011;7388;51.078;13.740;2022-11-12T01:08:49;27.77;;;18.30;;
14603;SDS011;7388;51.078;13.740;2022-11-12T01:11:19;27.73;;;17.75;;
14603;SDS011;7388;51.078;13.740;2022-11-12T01:13:51;26.48;;;17.65;;
14603;SDS011;7388;51.078;13.740;2022-11-12T01:16:20;25.92;;;16.67;;
14603;SDS011;7388;51.078;13.740;2022-11-12T01:18:51;25.95;;;16.27;;
14603;SDS011;7388;51.078;13.740;2022-11-12T01:21:19;26.70;;;15.90;;
14603;SDS011;7388;51.078;13.740;2022-11-12T01:23:48;21.35;;;14.73;;
14603;SDS011;7388;51.078;13.740;2022-11-12T01:26:14;24.57;;;15.67;;
14603;SDS011;7388;51.078;13.740;2022-11-12T01:28:42;22.25;;;15.18;;
14603;SDS011;7388;51.078;13.740;2022-11-12T01:31:12;21.38;;;13.55;;
14603;SDS011;7388;51.078;13.740;2022-11-12T01:33:39;25.35;;;15.52;;
14603;SDS011;7388;51.078;13.740;2022-11-12T01:36:06;22.52;;;14.20;;
14603;SDS011;7388;51.078;13.740;2022-11-12T01:38:33;25.42;;;17.02;;
14603;SDS011;7388;51.078;13.740;2022-11-12T01:41:03;24.27;;;13.60;;
14603;SDS011;7388;51.078;13.740;2022-11-12T01:43:30;24.48;;;14.60;;
14603;SDS011;7388;51.078;13.740;2022-11-12T01:45:56;20.83;;;14.17;;
14603;SDS011;7388;51.078;13.740;2022-11-12T01:51:01;22.23;;;13.65;;
14603;SDS011;7388;51.078;13.740;2022-11-12T01:53:29;26.88;;;15.07;;
14603;SDS011;7388;51.078;13.740;2022-11-12T01:55:58;20.05;;;13.23;;
14603;SDS011;7388;51.078;13.740;2022-11-12T01:58:25;21.92;;;12.48;;
14603;SDS011;7388;51.078;13.740;2022-11-12T02:00:54;20.80;;;13.27;;
14603;SDS011;7388;51.078;13.740;2022-11-12T02:03:21;20.35;;;13.52;;
14603;SDS011;7388;51.078;13.740;2022-11-12T02:05:50;18.20;;;12.55;;
14603;SDS011;7388;51.078;13.740;2022-11-12T02:08:21;18.05;;;11.60;;
14603;SDS011;7388;51.078;13.740;2022-11-12T02:10:49;21.33;;;13.88;;
14603;SDS011;7388;51.078;13.740;2022-11-12T02:13:15;24.23;;;13.55;;
14603;SDS011;7388;51.078;13.740;2022-11-12T02:16:02;17.33;;;12.95;;
14603;SDS011;7388;51.078;13.740;2022-11-12T02:18:29;18.63;;;12.38;;
14603;SDS011;7388;51.078;13.740;2022-11-12T02:20:56;17.23;;;12.77;;
14603;SDS011;7388;51.078;13.740;2022-11-12T02:23:23;20.75;;;14.43;;
14603;SDS011;7388;51.078;13.740;2022-11-12T02:25:48;21.63;;;14.00;;
14603;SDS011;7388;51.078;13.740;2022-11-12T02:28:14;18.53;;;12.67;;
14603;SDS011;7388;51.078;13.740;2022-11-12T02:30:43;24.30;;;13.73;;
14603;SDS011;7388;51.078;13.740;2022-11-12T02:33:10;16.48;;;11.20;;
14603;SDS011;7388;51.078;13.740;2022-11-12T02:35:36;20.90;;;12.63;;
14603;SDS011;7388;51.078;13.740;2022-11-12T02:38:02;19.00;;;13.07;;
14603;SDS011;7388;51.078;13.740;2022-11-12T02:40:28;20.13;;;13.23;;
14603;SDS011;7388;51.078;13.740;2022-11-12T02:42:54;16.97;;;12.07;;
14603;SDS011;7388;51.078;13.740;2022-11-12T02:45:20;22.92;;;13.50;;
14603;SDS011;7388;51.078;13.740;2022-11-12T02:47:46;18.03;;;11.77;;
14603;SDS011;7388;51.078;13.740;2022-11-12T02:50:12;16.37;;;11.87;;
14603;SDS011;7388;51.078;13.740;2022-11-12T02:52:38;19.27;;;12.30;;
14603;SDS011;7388;51.078;13.740;2022-11-12T02:55:04;16.43;;;10.80;;
14603;SDS011;7388;51.078;13.740;2022-11-12T02:57:31;17.77;;;12.07;;
14603;SDS011;7388;51.078;13.740;2022-11-12T02:59:57;20.57;;;13.40;;
14603;SDS011;7388;51.078;13.740;2022-11-12T03:02:23;19.80;;;12.53;;
14603;SDS011;7388;51.078;13.740;2022-11-12T03:04:48;20.00;;;12.43;;
14603;SDS011;7388;51.078;13.740;2022-11-12T03:07:14;19.80;;;13.23;;
14603;SDS011;7388;51.078;13.740;2022-11-12T03:09:40;17.37;;;11.23;;
14603;SDS011;7388;51.078;13.740;2022-11-12T03:12:05;18.20;;;11.33;;
14603;SDS011;7388;51.078;13.740;2022-11-12T03:14:31;16.33;;;11.10;;
14603;SDS011;7388;51.078;13.740;2022-11-12T03:16:57;15.80;;;11.43;;
14603;SDS011;7388;51.078;13.740;2022-11-12T03:19:23;15.87;;;12.13;;
14603;SDS011;7388;51.078;13.740;2022-11-12T03:21:48;16.83;;;11.40;;
14603;SDS011;7388;51.078;13.740;2022-11-12T03:24:14;17.33;;;12.70;;
14603;SDS011;7388;51.078;13.740;2022-11-12T03:26:40;22.23;;;12.47;;
14603;SDS011;7388;51.078;13.740;2022-11-12T03:29:06;15.93;;;11.23;;
14603;SDS011;7388;51.078;13.740;2022-11-12T03:31:31;18.20;;;12.33;;
14603;SDS011;7388;51.078;13.740;2022-11-12T03:33:57;20.90;;;12.40;;
14603;SDS011;7388;51.078;13.740;2022-11-12T03:36:23;17.07;;;12.70;;
14603;SDS011;7388;51.078;13.740;2022-11-12T03:38:48;15.07;;;11.50;;
14603;SDS011;7388;51.078;13.740;2022-11-12T03:41:14;16.47;;;11.17;;
14603;SDS011;7388;51.078;13.740;2022-11-12T03:43:40;17.77;;;11.37;;
14603;SDS011;7388;51.078;13.740;2022-11-12T03:46:05;15.63;;;10.00;;
14603;SDS011;7388;51.078;13.740;2022-11-12T03:48:31;12.80;;;10.53;;
14603;SDS011;7388;51.078;13.740;2022-11-12T03:50:57;19.87;;;11.17;;
14603;SDS011;7388;51.078;13.740;2022-11-12T03:53:24;16.17;;;11.10;;
14603;SDS011;7388;51.078;13.740;2022-11-12T03:55:50;14.70;;;10.85;;
14603;SDS011;7388;51.078;13.740;2022-11-12T03:58:16;15.30;;;9.40;;
14603;SDS011;7388;51.078;13.740;2022-11-12T04:00:41;12.07;;;8.97;;
14603;SDS011;7388;51.078;13.740;2022-11-12T04:03:07;15.97;;;10.83;;
14603;SDS011;7388;51.078;13.740;2022-11-12T04:05:33;17.37;;;12.30;;
14603;SDS011;7388;51.078;13.740;2022-11-12T04:08:19;15.85;;;10.90;;
14603;SDS011;7388;51.078;13.740;2022-11-12T04:11:05;15.32;;;9.50;;
14603;SDS011;7388;51.078;13.740;2022-11-12T04:13:33;13.43;;;9.68;;
14603;SDS011;7388;51.078;13.740;2022-11-12T04:16:18;14.18;;;9.60;;
14603;SDS011;7388;51.078;13.740;2022-11-12T04:19:04;16.13;;;10.00;;
14603;SDS011;7388;51.078;13.740;2022-11-12T04:21:51;13.45;;;9.65;;
14603;SDS011;7388;51.078;13.740;2022-11-12T04:24:23;12.25;;;9.60;;
14603;SDS011;7388;51.078;13.740;2022-11-12T04:29:45;12.63;;;10.15;;
14603;SDS011;7388;51.078;13.740;2022-11-12T04:32:31;14.10;;;10.45;;
14603;SDS011;7388;51.078;13.740;2022-11-12T04:34:58;14.60;;;8.95;;
14603;SDS011;7388;51.078;13.740;2022-11-12T04:37:25;13.88;;;10.50;;
14603;SDS011;7388;51.078;13.740;2022-11-12T04:39:52;12.02;;;9.60;;
14603;SDS011;7388;51.078;13.740;2022-11-12T04:42:18;13.50;;;9.80;;
14603;SDS011;7388;51.078;13.740;2022-11-12T04:45:11;14.90;;;10.75;;
14603;SDS011;7388;51.078;13.740;2022-11-12T04:47:38;14.13;;;10.32;;
14603;SDS011;7388;51.078;13.740;2022-11-12T04:50:07;13.40;;;9.77;;
14603;SDS011;7388;51.078;13.740;2022-11-12T04:52:37;13.38;;;9.45;;
14603;SDS011;7388;51.078;13.740;2022-11-12T04:55:03;14.60;;;9.20;;
14603;SDS011;7388;51.078;13.740;2022-11-12T04:57:29;18.38;;;10.07;;
14603;SDS011;7388;51.078;13.740;2022-11-12T04:59:55;15.83;;;10.30;;
14603;SDS011;7388;51.078;13.740;2022-11-12T05:02:21;11.97;;;9.87;;
14603;SDS011;7388;51.078;13.740;2022-11-12T05:04:47;15.70;;;11.67;;
14603;SDS011;7388;51.078;13.740;2022-11-12T05:07:13;14.50;;;10.13;;
14603;SDS011;7388;51.078;13.740;2022-11-12T05:09:39;14.43;;;9.82;;
14603;SDS011;7388;51.078;13.740;2022-11-12T05:12:05;16.88;;;9.85;;
14603;SDS011;7388;51.078;13.740;2022-11-12T05:14:31;16.70;;;9.25;;
14603;SDS011;7388;51.078;13.740;2022-11-12T05:16:57;13.63;;;10.17;;
14603;SDS011;7388;51.078;13.740;2022-11-12T05:19:23;13.40;;;9.37;;
14603;SDS011;7388;51.078;13.740;2022-11-12T05:21:52;14.53;;;8.67;;
14603;SDS011;7388;51.078;13.740;2022-11-12T05:24:33;13.40;;;10.50;;
14603;SDS011;7388;51.078;13.740;2022-11-12T05:27:01;9.65;;;7.85;;
14603;SDS011;7388;51.078;13.740;2022-11-12T05:29:29;16.23;;;11.68;;
14603;SDS011;7388;51.078;13.740;2022-11-12T05:31:55;16.47;;;9.57;;
14603;SDS011;7388;51.078;13.740;2022-11-12T05:34:21;13.13;;;9.02;;
14603;SDS011;7388;51.078;13.740;2022-11-12T05:36:47;13.60;;;8.73;;
14603;SDS011;7388;51.078;13.740;2022-11-12T05:39:12;14.07;;;9.63;;
14603;SDS011;7388;51.078;13.740;2022-11-12T05:41:38;11.83;;;8.53;;
14603;SDS011;7388;51.078;13.740;2022-11-12T05:44:04;13.90;;;9.20;;
14603;SDS011;7388;51.078;13.740;2022-11-12T05:46:30;12.77;;;8.80;;
14603;SDS011;7388;51.078;13.740;2022-11-12T05:48:55;11.77;;;8.43;;
14603;SDS011;7388;51.078;13.740;2022-11-12T05:51:21;16.90;;;8.90;;
14603;SDS011;7388;51.078;13.740;2022-11-12T05:53:47;14.63;;;9.33;;
14603;SDS011;7388;51.078;13.740;2022-11-12T05:56:13;14.30;;;9.03;;
14603;SDS011;7388;51.078;13.740;2022-11-12T05:58:38;20.43;;;10.60;;
14603;SDS011;7388;51.078;13.740;2022-11-12T06:01:04;13.57;;;9.50;;
14603;SDS011;7388;51.078;13.740;2022-11-12T06:03:30;16.53;;;10.77;;
14603;SDS011;7388;51.078;13.740;2022-11-12T06:05:56;14.57;;;9.80;;
14603;SDS011;7388;51.078;13.740;2022-11-12T06:08:21;15.00;;;10.10;;
14603;SDS011;7388;51.078;13.740;2022-11-12T06:10:48;17.73;;;10.23;;
14603;SDS011;7388;51.078;13.740;2022-11-12T06:13:14;14.50;;;10.55;;
14603;SDS011;7388;51.078;13.740;2022-11-12T06:15:40;13.60;;;9.17;;
14603;SDS011;7388;51.078;13.740;2022-11-12T06:18:06;18.10;;;10.20;;
14603;SDS011;7388;51.078;13.740;2022-11-12T06:20:32;17.63;;;11.80;;
14603;SDS011;7388;51.078;13.740;2022-11-12T06:22:58;21.95;;;11.20;;
14603;SDS011;7388;51.078;13.740;2022-11-12T06:25:23;19.10;;;11.37;;
14603;SDS011;7388;51.078;13.740;2022-11-12T06:27:49;19.30;;;10.80;;
14603;SDS011;7388;51.078;13.740;2022-11-12T06:30:15;18.67;;;11.43;;
14603;SDS011;7388;51.078;13.740;2022-11-12T06:32:41;17.10;;;12.63;;
14603;SDS011;7388;51.078;13.740;2022-11-12T06:35:10;17.48;;;11.57;;
14603;SDS011;7388;51.078;13.740;2022-11-12T06:37:36;24.03;;;12.37;;
14603;SDS011;7388;51.078;13.740;2022-11-12T06:40:02;26.97;;;12.17;;
14603;SDS011;7388;51.078;13.740;2022-11-12T06:42:28;29.35;;;12.55;;
14603;SDS011;7388;51.078;13.740;2022-11-12T06:44:54;19.17;;;13.17;;
14603;SDS011;7388;51.078;13.740;2022-11-12T06:47:20;25.20;;;13.70;;
14603;SDS011;7388;51.078;13.740;2022-11-12T06:49:45;25.00;;;12.97;;
14603;SDS011;7388;51.078;13.740;2022-11-12T06:52:11;24.70;;;12.00;;
14603;SDS011;7388;51.078;13.740;2022-11-12T06:54:37;23.27;;;13.60;;
14603;SDS011;7388;51.078;13.740;2022-11-12T06:57:02;28.33;;;13.20;;
14603;SDS011;7388;51.078;13.740;2022-11-12T06:59:28;28.37;;;14.70;;
14603;SDS011;7388;51.078;13.740;2022-11-12T07:01:54;25.67;;;13.47;;
14603;SDS011;7388;51.078;13.740;2022-11-12T07:04:20;36.67;;;13.70;;
14603;SDS011;7388;51.078;13.740;2022-11-12T07:06:45;30.93;;;13.77;;
14603;SDS011;7388;51.078;13.740;2022-11-12T07:09:11;26.10;;;14.33;;
14603;SDS011;7388;51.078;13.740;2022-11-12T07:11:37;39.67;;;13.10;;
14603;SDS011;7388;51.078;13.740;2022-11-12T07:14:05;28.93;;;13.90;;
14603;SDS011;7388;51.078;13.740;2022-11-12T07:16:32;24.73;;;14.32;;
14603;SDS011;7388;51.078;13.740;2022-11-12T07:18:57;20.63;;;14.10;;
14603;SDS011;7388;51.078;13.740;2022-11-12T07:21:23;21.77;;;12.43;;
14603;SDS011;7388;51.078;13.740;2022-11-12T07:23:49;23.27;;;13.23;;
14603;SDS011;7388;51.078;13.740;2022-11-12T07:26:18;20.20;;;12.03;;
14603;SDS011;7388;51.078;13.740;2022-11-12T07:28:46;21.02;;;13.20;;
14603;SDS011;7388;51.078;13.740;2022-11-12T07:31:14;20.52;;;12.45;;
14603;SDS011;7388;51.078;13.740;2022-11-12T07:33:42;24.83;;;12.82;;
14603;SDS011;7388;51.078;13.740;2022-11-12T07:36:09;15.18;;;10.85;;
14603;SDS011;7388;51.078;13.740;2022-11-12T07:38:37;20.80;;;11.65;;
14603;SDS011;7388;51.078;13.740;2022-11-12T07:41:13;21.23;;;12.40;;
14603;SDS011;7388;51.078;13.740;2022-11-12T07:43:41;18.77;;;12.73;;
14603;SDS011;7388;51.078;13.740;2022-11-12T07:46:18;21.13;;;11.73;;
14603;SDS011;7388;51.078;13.740;2022-11-12T07:48:45;17.83;;;14.20;;
14603;SDS011;7388;51.078;13.740;2022-11-12T07:51:12;19.58;;;12.20;;
14603;SDS011;7388;51.078;13.740;2022-11-12T07:53:49;23.20;;;12.85;;
14603;SDS011;7388;51.078;13.740;2022-11-12T07:56:17;19.15;;;13.05;;
14603;SDS011;7388;51.078;13.740;2022-11-12T07:58:47;18.13;;;11.20;;
14603;SDS011;7388;51.078;13.740;2022-11-12T08:04:09;20.02;;;11.40;;
14603;SDS011;7388;51.078;13.740;2022-11-12T08:06:36;22.58;;;12.82;;
14603;SDS011;7388;51.078;13.740;2022-11-12T08:09:03;19.00;;;10.95;;
14603;SDS011;7388;51.078;13.740;2022-11-12T08:11:31;14.32;;;10.98;;
14603;SDS011;7388;51.078;13.740;2022-11-12T08:13:57;16.90;;;11.80;;
14603;SDS011;7388;51.078;13.740;2022-11-12T08:16:23;16.10;;;12.60;;
14603;SDS011;7388;51.078;13.740;2022-11-12T08:18:49;18.30;;;10.73;;
14603;SDS011;7388;51.078;13.740;2022-11-12T08:21:15;19.73;;;12.83;;
14603;SDS011;7388;51.078;13.740;2022-11-12T08:23:42;14.93;;;11.70;;
14603;SDS011;7388;51.078;13.740;2022-11-12T08:26:09;18.48;;;13.10;;
14603;SDS011;7388;51.078;13.740;2022-11-12T08:28:37;13.80;;;10.77;;
14603;SDS011;7388;51.078;13.740;2022-11-12T08:31:04;15.90;;;10.60;;
14603;SDS011;7388;51.078;13.740;2022-11-12T08:33:32;15.98;;;12.15;;
14603;SDS011;7388;51.078;13.740;2022-11-12T08:36:02;16.67;;;10.32;;
14603;SDS011;7388;51.078;13.740;2022-11-12T08:38:29;13.48;;;10.98;;
14603;SDS011;7388;51.078;13.740;2022-11-12T08:40:58;13.82;;;9.90;;
14603;SDS011;7388;51.078;13.740;2022-11-12T08:43:35;13.85;;;10.32;;
14603;SDS011;7388;51.078;13.740;2022-11-12T08:46:10;16.40;;;10.10;;
14603;SDS011;7388;51.078;13.740;2022-11-12T08:48:36;13.00;;;9.67;;
14603;SDS011;7388;51.078;13.740;2022-11-12T08:51:04;10.38;;;9.18;;
14603;SDS011;7388;51.078;13.740;2022-11-12T08:53:30;15.77;;;10.90;;
14603;SDS011;7388;51.078;13.740;2022-11-12T08:55:57;16.02;;;10.95;;
14603;SDS011;7388;51.078;13.740;2022-11-12T08:58:24;11.70;;;9.02;;
14603;SDS011;7388;51.078;13.740;2022-11-12T09:00:52;10.18;;;8.10;;
14603;SDS011;7388;51.078;13.740;2022-11-12T09:03:21;11.00;;;8.65;;
14603;SDS011;7388;51.078;13.740;2022-11-12T09:05:50;10.93;;;9.25;;
14603;SDS011;7388;51.078;13.740;2022-11-12T09:08:18;12.10;;;8.75;;
14603;SDS011;7388;51.078;13.740;2022-11-12T09:10:47;12.98;;;8.10;;
14603;SDS011;7388;51.078;13.740;2022-11-12T09:13:14;11.98;;;9.45;;
14603;SDS011;7388;51.078;13.740;2022-11-12T09:15:41;10.73;;;7.75;;
14603;SDS011;7388;51.078;13.740;2022-11-12T09:18:09;11.90;;;8.60;;
14603;SDS011;7388;51.078;13.740;2022-11-12T09:20:37;12.18;;;9.07;;
14603;SDS011;7388;51.078;13.740;2022-11-12T09:23:04;10.80;;;7.77;;
14603;SDS011;7388;51.078;13.740;2022-11-12T09:25:32;10.77;;;8.57;;
14603;SDS011;7388;51.078;13.740;2022-11-12T09:28:04;9.18;;;8.27;;
14603;SDS011;7388;51.078;13.740;2022-11-12T09:30:32;8.10;;;7.30;;
14603;SDS011;7388;51.078;13.740;2022-11-12T09:32:58;9.70;;;7.68;;
14603;SDS011;7388;51.078;13.740;2022-11-12T09:35:24;10.18;;;8.05;;
14603;SDS011;7388;51.078;13.740;2022-11-12T09:37:50;13.67;;;8.57;;
14603;SDS011;7388;51.078;13.740;2022-11-12T09:40:17;11.60;;;9.00;;
14603;SDS011;7388;51.078;13.740;2022-11-12T09:42:44;10.45;;;8.18;;
14603;SDS011;7388;51.078;13.740;2022-11-12T09:45:23;10.02;;;8.98;;
14603;SDS011;7388;51.078;13.740;2022-11-12T09:47:58;11.07;;;7.93;;
14603;SDS011;7388;51.078;13.740;2022-11-12T09:50:35;10.57;;;8.30;;
14603;SDS011;7388;51.078;13.740;2022-11-12T09:53:39;8.30;;;6.53;;
14603;SDS011;7388;51.078;13.740;2022-11-12T09:56:12;9.15;;;7.00;;
14603;SDS011;7388;51.078;13.740;2022-11-12T09:58:40;11.70;;;8.90;;
14603;SDS011;7388;51.078;13.740;2022-11-12T10:01:10;9.37;;;8.03;;
14603;SDS011;7388;51.078;13.740;2022-11-12T10:03:47;10.40;;;8.10;;
14603;SDS011;7388;51.078;13.740;2022-11-12T10:09:55;12.40;;;7.97;;
14603;SDS011;7388;51.078;13.740;2022-11-12T10:18:49;11.15;;;8.90;;
14603;SDS011;7388;51.078;13.740;2022-11-12T10:24:24;8.23;;;7.03;;
14603;SDS011;7388;51.078;13.740;2022-11-12T10:26:55;12.32;;;8.63;;
14603;SDS011;7388;51.078;13.740;2022-11-12T10:29:26;11.13;;;8.20;;
14603;SDS011;7388;51.078;13.740;2022-11-12T10:32:03;8.80;;;6.80;;
14603;SDS011;7388;51.078;13.740;2022-11-12T10:34:28;8.40;;;6.67;;
14603;SDS011;7388;51.078;13.740;2022-11-12T10:37:05;8.75;;;6.47;;
14603;SDS011;7388;51.078;13.740;2022-11-12T10:39:37;8.27;;;6.80;;
14603;SDS011;7388;51.078;13.740;2022-11-12T10:42:08;8.48;;;7.43;;
14603;SDS011;7388;51.078;13.740;2022-11-12T10:44:39;7.85;;;6.32;;
14603;SDS011;7388;51.078;13.740;2022-11-12T10:49:42;11.65;;;7.13;;
14603;SDS011;7388;51.078;13.740;2022-11-12T10:52:20;6.50;;;5.90;;
14603;SDS011;7388;51.078;13.740;2022-11-12T10:54:47;9.77;;;7.50;;
14603;SDS011;7388;51.078;13.740;2022-11-12T10:57:23;10.17;;;7.97;;
14603;SDS011;7388;51.078;13.740;2022-11-12T11:02:49;12.35;;;7.43;;
14603;SDS011;7388;51.078;13.740;2022-11-12T11:05:26;8.40;;;7.00;;
14603;SDS011;7388;51.078;13.740;2022-11-12T11:07:55;10.73;;;8.02;;
14603;SDS011;7388;51.078;13.740;2022-11-12T11:10:23;9.15;;;7.22;;
14603;SDS011;7388;51.078;13.740;2022-11-12T11:12:49;11.20;;;7.00;;
14603;SDS011;7388;51.078;13.740;2022-11-12T11:15:33;9.88;;;7.53;;
14603;SDS011;7388;51.078;13.740;2022-11-12T11:17:59;7.30;;;5.72;;
14603;SDS011;7388;51.078;13.740;2022-11-12T11:20:46;8.50;;;5.90;;
14603;SDS011;7388;51.078;13.740;2022-11-12T11:23:23;7.00;;;6.30;;
14603;SDS011;7388;51.078;13.740;2022-11-12T11:25:54;9.70;;;7.20;;
14603;SDS011;7388;51.078;13.740;2022-11-12T11:32:07;11.18;;;6.43;;
14603;SDS011;7388;51.078;13.740;2022-11-12T11:37:27;7.88;;;6.78;;
14603;SDS011;7388;51.078;13.740;2022-11-12T11:42:43;9.77;;;6.65;;
14603;SDS011;7388;51.078;13.740;2022-11-12T11:56:42;7.00;;;6.20;;
14603;SDS011;7388;51.078;13.740;2022-11-12T12:00:12;8.32;;;6.93;;
14603;SDS011;7388;51.078;13.740;2022-11-12T12:04:49;11.05;;;7.00;;
14603;SDS011;7388;51.078;13.740;2022-11-12T12:07:36;8.90;;;5.80;;
14603;SDS011;7388;51.078;13.740;2022-11-12T12:10:23;10.98;;;6.60;;
14603;SDS011;7388;51.078;13.740;2022-11-12T12:20:53;8.82;;;6.60;;
14603;SDS011;7388;51.078;13.740;2022-11-12T12:23:28;8.93;;;7.43;;
14603;SDS011;7388;51.078;13.740;2022-11-12T12:25:55;10.23;;;5.88;;
14603;SDS011;7388;51.078;13.740;2022-11-12T12:31:03;5.93;;;5.33;;
14603;SDS011;7388;51.078;13.740;2022-11-12T12:33:42;9.90;;;7.17;;
14603;SDS011;7388;51.078;13.740;2022-11-12T12:36:37;6.70;;;6.00;;
14603;SDS011;7388;51.078;13.740;2022-11-12T12:39:18;8.63;;;6.80;;
14603;SDS011;7388;51.078;13.740;2022-11-12T12:44:29;7.27;;;6.07;;
14603;SDS011;7388;51.078;13.740;2022-11-12T12:47:20;8.93;;;6.67;;
14603;SDS011;7388;51.078;13.740;2022-11-12T12:49:47;7.90;;;6.93;;
14603;SDS011;7388;51.078;13.740;2022-11-12T12:52:14;7.40;;;5.67;;
14603;SDS011;7388;51.078;13.740;2022-11-12T13:02:55;9.40;;;6.57;;
14603;SDS011;7388;51.078;13.740;2022-11-12T13:08:00;11.60;;;7.40;;
14603;SDS011;7388;51.078;13.740;2022-11-12T13:13:22;7.50;;;6.07;;
14603;SDS011;7388;51.078;13.740;2022-11-12T13:15:54;7.90;;;6.10;;
14603;SDS011;7388;51.078;13.740;2022-11-12T13:21:16;7.40;;;6.17;;
14603;SDS011;7388;51.078;13.740;2022-11-12T13:26:47;9.00;;;6.53;;
14603;SDS011;7388;51.078;13.740;2022-11-12T13:37:46;17.27;;;13.40;;
14603;SDS011;7388;51.078;13.740;2022-11-12T13:45:30;7.60;;;5.40;;
14603;SDS011;7388;51.078;13.740;2022-11-12T13:47:59;7.80;;;6.47;;
14603;SDS011;7388;51.078;13.740;2022-11-12T13:50:29;8.38;;;5.55;;
14603;SDS011;7388;51.078;13.740;2022-11-12T13:52:56;6.25;;;5.28;;
14603;SDS011;7388;51.078;13.740;2022-11-12T13:55:23;7.93;;;6.05;;
14603;SDS011;7388;51.078;13.740;2022-11-12T13:57:50;7.87;;;5.43;;
14603;SDS011;7388;51.078;13.740;2022-11-12T14:02:44;8.40;;;6.30;;
14603;SDS011;7388;51.078;13.740;2022-11-12T14:05:29;9.35;;;6.00;;
14603;SDS011;7388;51.078;13.740;2022-11-12T14:11:12;8.05;;;5.78;;
14603;SDS011;7388;51.078;13.740;2022-11-12T14:22:15;6.40;;;5.18;;
14603;SDS011;7388;51.078;13.740;2022-11-12T14:24:43;8.90;;;6.40;;
14603;SDS011;7388;51.078;13.740;2022-11-12T14:32:46;7.03;;;5.85;;
14603;SDS011;7388;51.078;13.740;2022-11-12T14:35:17;6.63;;;5.32;;
14603;SDS011;7388;51.078;13.740;2022-11-12T14:37:56;8.68;;;5.70;;
14603;SDS011;7388;51.078;13.740;2022-11-12T14:40:31;7.45;;;6.50;;
14603;SDS011;7388;51.078;13.740;2022-11-12T14:43:00;9.73;;;7.65;;
14603;SDS011;7388;51.078;13.740;2022-11-12T14:45:26;8.60;;;6.63;;
14603;SDS011;7388;51.078;13.740;2022-11-12T14:47:52;8.70;;;6.90;;
14603;SDS011;7388;51.078;13.740;2022-11-12T14:53:04;15.05;;;6.50;;
14603;SDS011;7388;51.078;13.740;2022-11-12T14:55:46;10.40;;;6.40;;
14603;SDS011;7388;51.078;13.740;2022-11-12T14:58:16;8.45;;;6.05;;
14603;SDS011;7388;51.078;13.740;2022-11-12T15:00:44;8.05;;;5.82;;
14603;SDS011;7388;51.078;13.740;2022-11-12T15:03:16;8.18;;;6.63;;
14603;SDS011;7388;51.078;13.740;2022-11-12T15:08:28;8.00;;;7.03;;
14603;SDS011;7388;51.078;13.740;2022-11-12T15:10:55;8.30;;;7.50;;
14603;SDS011;7388;51.078;13.740;2022-11-12T15:13:39;7.97;;;6.45;;
14603;SDS011;7388;51.078;13.740;2022-11-12T15:16:06;48.92;;;12.30;;
14603;SDS011;7388;51.078;13.740;2022-11-12T15:18:34;11.95;;;8.10;;
14603;SDS011;7388;51.078;13.740;2022-11-12T15:23:46;10.85;;;8.02;;
14603;SDS011;7388;51.078;13.740;2022-11-12T15:26:36;9.40;;;6.90;;
14603;SDS011;7388;51.078;13.740;2022-11-12T15:31:49;13.25;;;9.00;;
14603;SDS011;7388;51.078;13.740;2022-11-12T15:37:08;11.63;;;7.85;;
14603;SDS011;7388;51.078;13.740;2022-11-12T15:39:50;9.73;;;8.68;;
14603;SDS011;7388;51.078;13.740;2022-11-12T15:42:35;10.95;;;8.60;;
14603;SDS011;7388;51.078;13.740;2022-11-12T15:45:03;13.70;;;8.25;;
14603;SDS011;7388;51.078;13.740;2022-11-12T15:47:41;9.30;;;7.30;;
14603;SDS011;7388;51.078;13.740;2022-11-12T15:50:13;10.57;;;8.65;;
14603;SDS011;7388;51.078;13.740;2022-11-12T15:52:39;16.58;;;8.15;;
14603;SDS011;7388;51.078;13.740;2022-11-12T15:55:05;9.52;;;7.10;;
14603;SDS011;7388;51.078;13.740;2022-11-12T15:57:32;8.10;;;7.30;;
14603;SDS011;7388;51.078;13.740;2022-11-12T16:00:04;12.20;;;8.10;;
14603;SDS011;7388;51.078;13.740;2022-11-12T16:02:41;9.93;;;8.02;;
14603;SDS011;7388;51.078;13.740;2022-11-12T16:05:14;10.65;;;7.63;;
14603;SDS011;7388;51.078;13.740;2022-11-12T16:07:41;10.82;;;7.47;;
14603;SDS011;7388;51.078;13.740;2022-11-12T16:10:11;18.10;;;13.20;;
14603;SDS011;7388;51.078;13.740;2022-11-12T16:12:38;14.68;;;8.60;;
14603;SDS011;7388;51.078;13.740;2022-11-12T16:15:08;16.30;;;13.15;;
14603;SDS011;7388;51.078;13.740;2022-11-12T16:17:38;41.63;;;33.28;;
14603;SDS011;7388;51.078;13.740;2022-11-12T16:20:23;85.70;;;64.40;;
14603;SDS011;7388;51.078;13.740;2022-11-12T16:22:55;35.85;;;28.65;;
14603;SDS011;7388;51.078;13.740;2022-11-12T16:25:21;31.90;;;26.73;;
14603;SDS011;7388;51.078;13.740;2022-11-12T16:27:51;34.83;;;25.13;;
14603;SDS011;7388;51.078;13.740;2022-11-12T16:30:27;24.70;;;18.97;;
14603;SDS011;7388;51.078;13.740;2022-11-12T16:32:55;27.63;;;21.05;;
14603;SDS011;7388;51.078;13.740;2022-11-12T16:35:22;42.58;;;32.75;;
14603;SDS011;7388;51.078;13.740;2022-11-12T16:37:48;35.92;;;26.30;;
14603;SDS011;7388;51.078;13.740;2022-11-12T16:40:26;33.15;;;26.67;;
14603;SDS011;7388;51.078;13.740;2022-11-12T16:42:54;25.70;;;21.45;;
14603;SDS011;7388;51.078;13.740;2022-11-12T16:45:20;25.83;;;19.37;;
14603;SDS011;7388;51.078;13.740;2022-11-12T16:47:51;22.90;;;17.52;;
14603;SDS011;7388;51.078;13.740;2022-11-12T16:50:20;23.52;;;14.43;;
14603;SDS011;7388;51.078;13.740;2022-11-12T16:52:48;20.60;;;14.68;;